sensor_id;sensor_type;location;lat;lon;timestamp;pressure;altitude;pressure_sealevel;temperature;humidity
54910;BME280;63189;51.240;9.964;2023-01-27T00:00:31;98285.25;;;-0.77;100.00
54910;BME280;63189;51.240;9.964;2023-01-27T00:02:56;98284.41;;;-0.76;100.00
54910;BME280;63189;51.240;9.964;2023-01-27T00:05:22;98274.94;;;-0.80;100.00
54910;BME280;63189;51.240;9.964;2023-01-27T00:07:48;98283.56;;;-0.75;100.00
54910;BME280;63189;51.240;9.964;2023-01-27T00:10:18;98281.91;;;-0.73;100.00
54910;BME280;63189;51.240;9.964;2023-01-27T00:12:45;98277.53;;;-0.79;100.00
54910;BME280;63189;51.240;9.964;2023-01-27T00:15:30;98287.09;;;-0.70;100.00
54910;BME280;63189;51.240;9.964;2023-01-27T00:17:56;98282.84;;;-0.70;100.00
54910;BME280;63189;51.240;9.964;2023-01-27T00:20:24;98279.34;;;-0.73;100.00
54910;BME280;63189;51.240;9.964;2023-01-27T00:23:20;98281.94;;;-0.72;100.00
54910;BME280;63189;51.240;9.964;2023-01-27T00:26:06;98271.59;;;-0.76;100.00
54910;BME280;63189;51.240;9.964;2023-01-27T00:28:36;98274.28;;;-0.70;100.00
54910;BME280;63189;51.240;9.964;2023-01-27T00:31:03;98276.00;;;-0.71;100.00
54910;BME280;63189;51.240;9.964;2023-01-27T00:33:29;98261.41;;;-0.73;100.00
54910;BME280;63189;51.240;9.964;2023-01-27T00:35:57;98271.72;;;-0.70;100.00
54910;BME280;63189;51.240;9.964;2023-01-27T00:38:24;98264.75;;;-0.77;100.00
54910;BME280;63189;51.240;9.964;2023-01-27T00:40:49;98253.63;;;-0.81;100.00
54910;BME280;63189;51.240;9.964;2023-01-27T00:43:35;98264.78;;;-0.76;100.00
54910;BME280;63189;51.240;9.964;2023-01-27T00:46:00;98265.66;;;-0.74;100.00
54910;BME280;63189;51.240;9.964;2023-01-27T00:48:26;98267.38;;;-0.74;100.00
54910;BME280;63189;51.240;9.964;2023-01-27T00:50:51;98269.94;;;-0.74;100.00
54910;BME280;63189;51.240;9.964;2023-01-27T00:53:16;98275.13;;;-0.71;100.00
54910;BME280;63189;51.240;9.964;2023-01-27T00:55:42;98271.66;;;-0.73;100.00
54910;BME280;63189;51.240;9.964;2023-01-27T00:58:07;98279.38;;;-0.72;100.00
54910;BME280;63189;51.240;9.964;2023-01-27T01:00:32;98274.13;;;-0.79;100.00
54910;BME280;63189;51.240;9.964;2023-01-27T01:02:57;98281.91;;;-0.73;100.00
54910;BME280;63189;51.240;9.964;2023-01-27T01:05:23;98268.16;;;-0.78;100.00
54910;BME280;63189;51.240;9.964;2023-01-27T01:07:48;98275.91;;;-0.74;100.00
54910;BME280;63189;51.240;9.964;2023-01-27T01:10:14;98263.94;;;-0.75;100.00
54910;BME280;63189;51.240;9.964;2023-01-27T01:12:39;98270.75;;;-0.75;100.00
54910;BME280;63189;51.240;9.964;2023-01-27T01:15:05;98270.78;;;-0.74;100.00
54910;BME280;63189;51.240;9.964;2023-01-27T01:17:30;98275.06;;;-0.74;100.00
54910;BME280;63189;51.240;9.964;2023-01-27T01:19:56;98275.13;;;-0.71;100.00
54910;BME280;63189;51.240;9.964;2023-01-27T01:22:21;98276.00;;;-0.71;100.00
54910;BME280;63189;51.240;9.964;2023-01-27T01:24:47;98282.81;;;-0.71;100.00
54910;BME280;63189;51.240;9.964;2023-01-27T01:27:12;98264.75;;;-0.77;100.00
54910;BME280;63189;51.240;9.964;2023-01-27T01:29:37;98277.63;;;-0.74;100.00
54910;BME280;63189;51.240;9.964;2023-01-27T01:32:03;98284.44;;;-0.73;100.00
54910;BME280;63189;51.240;9.964;2023-01-27T01:34:28;98278.44;;;-0.75;100.00
54910;BME280;63189;51.240;9.964;2023-01-27T01:36:54;98284.53;;;-0.70;100.00
54910;BME280;63189;51.240;9.964;2023-01-27T01:39:19;98284.56;;;-0.69;100.00
54910;BME280;63189;51.240;9.964;2023-01-27T01:41:44;98274.22;;;-0.73;100.00
54910;BME280;63189;51.240;9.964;2023-01-27T01:44:30;98283.69;;;-0.71;100.00
54910;BME280;63189;51.240;9.964;2023-01-27T01:46:57;98289.63;;;-0.72;100.00
54910;BME280;63189;51.240;9.964;2023-01-27T01:49:35;98280.13;;;-0.77;100.00
54910;BME280;63189;51.240;9.964;2023-01-27T01:52:09;98287.00;;;-0.75;100.00
54910;BME280;63189;51.240;9.964;2023-01-27T01:54:48;98282.81;;;-0.71;100.00
54910;BME280;63189;51.240;9.964;2023-01-27T01:57:20;98287.97;;;-0.70;100.00
54910;BME280;63189;51.240;9.964;2023-01-27T01:59:55;98287.91;;;-0.73;100.00
54910;BME280;63189;51.240;9.964;2023-01-27T02:02:23;98286.97;;;-0.76;100.00
54910;BME280;63189;51.240;9.964;2023-01-27T02:05:12;98272.38;;;-0.80;100.00
54910;BME280;63189;51.240;9.964;2023-01-27T02:07:54;98296.53;;;-0.68;100.00
54910;BME280;63189;51.240;9.964;2023-01-27T02:10:21;98287.16;;;-0.67;100.00
54910;BME280;63189;51.240;9.964;2023-01-27T02:12:47;98288.00;;;-0.67;100.00
54910;BME280;63189;51.240;9.964;2023-01-27T02:15:12;98275.19;;;-0.68;100.00
54910;BME280;63189;51.240;9.964;2023-01-27T02:17:38;98270.00;;;-0.71;100.00
54910;BME280;63189;51.240;9.964;2023-01-27T02:20:27;98273.47;;;-0.69;100.00
54910;BME280;63189;51.240;9.964;2023-01-27T02:23:24;98284.59;;;-0.66;100.00
54910;BME280;63189;51.240;9.964;2023-01-27T02:26:07;98280.44;;;-0.62;100.00
54910;BME280;63189;51.240;9.964;2023-01-27T02:28:34;98288.06;;;-0.64;100.00
54910;BME280;63189;51.240;9.964;2023-01-27T02:31:00;98272.59;;;-0.70;100.00
54910;BME280;63189;51.240;9.964;2023-01-27T02:33:25;98289.78;;;-0.63;100.00
54910;BME280;63189;51.240;9.964;2023-01-27T02:36:02;98282.09;;;-0.63;100.00
54910;BME280;63189;51.240;9.964;2023-01-27T02:38:38;98267.38;;;-0.74;100.00
54910;BME280;63189;51.240;9.964;2023-01-27T02:41:19;98283.78;;;-0.63;100.00
54910;BME280;63189;51.240;9.964;2023-01-27T02:43:48;98283.00;;;-0.61;100.00
54910;BME280;63189;51.240;9.964;2023-01-27T02:46:14;98280.44;;;-0.62;100.00
54910;BME280;63189;51.240;9.964;2023-01-27T02:48:39;98286.44;;;-0.60;100.00
54910;BME280;63189;51.240;9.964;2023-01-27T02:51:05;98295.84;;;-0.59;100.00
54910;BME280;63189;51.240;9.964;2023-01-27T02:53:30;98289.75;;;-0.64;100.00
54910;BME280;63189;51.240;9.964;2023-01-27T02:55:55;98294.13;;;-0.60;100.00
54910;BME280;63189;51.240;9.964;2023-01-27T02:58:21;98290.59;;;-0.65;100.00
54910;BME280;63189;51.240;9.964;2023-01-27T03:00:46;98306.09;;;-0.59;100.00
54910;BME280;63189;51.240;9.964;2023-01-27T03:03:12;98306.91;;;-0.62;100.00
54910;BME280;63189;51.240;9.964;2023-01-27T03:05:37;98307.75;;;-0.61;100.00
54910;BME280;63189;51.240;9.964;2023-01-27T03:08:03;98292.25;;;-0.69;100.00
54910;BME280;63189;51.240;9.964;2023-01-27T03:10:28;98294.91;;;-0.63;100.00
54910;BME280;63189;51.240;9.964;2023-01-27T03:12:54;98300.06;;;-0.61;100.00
54910;BME280;63189;51.240;9.964;2023-01-27T03:15:19;98290.59;;;-0.65;100.00
54910;BME280;63189;51.240;9.964;2023-01-27T03:18:05;98297.47;;;-0.63;100.00
54910;BME280;63189;51.240;9.964;2023-01-27T03:20:47;98297.44;;;-0.64;100.00
54910;BME280;63189;51.240;9.964;2023-01-27T03:23:15;98300.06;;;-0.61;100.00
54910;BME280;63189;51.240;9.964;2023-01-27T03:25:46;98289.72;;;-0.66;100.00
54910;BME280;63189;51.240;9.964;2023-01-27T03:28:13;98295.78;;;-0.62;100.00
54910;BME280;63189;51.240;9.964;2023-01-27T03:30:39;98304.44;;;-0.55;100.00
54910;BME280;63189;51.240;9.964;2023-01-27T03:33:05;98306.09;;;-0.57;100.00
54910;BME280;63189;51.240;9.964;2023-01-27T03:35:34;98304.38;;;-0.59;100.00
54910;BME280;63189;51.240;9.964;2023-01-27T03:38:03;98310.41;;;-0.55;100.00
54910;BME280;63189;51.240;9.964;2023-01-27T03:40:50;98307.84;;;-0.55;100.00
54910;BME280;63189;51.240;9.964;2023-01-27T03:43:34;98301.81;;;-0.60;100.00
54910;BME280;63189;51.240;9.964;2023-01-27T03:46:19;98313.78;;;-0.57;100.00
54910;BME280;63189;51.240;9.964;2023-01-27T03:48:53;98319.78;;;-0.57;100.00
54910;BME280;63189;51.240;9.964;2023-01-27T03:51:21;98327.53;;;-0.52;100.00
54910;BME280;63189;51.240;9.964;2023-01-27T03:53:47;98325.81;;;-0.53;100.00
54910;BME280;63189;51.240;9.964;2023-01-27T03:56:13;98329.31;;;-0.50;100.00
54910;BME280;63189;51.240;9.964;2023-01-27T03:58:40;98336.09;;;-0.52;100.00
54910;BME280;63189;51.240;9.964;2023-01-27T04:01:16;98333.56;;;-0.52;100.00
54910;BME280;63189;51.240;9.964;2023-01-27T04:03:43;98328.44;;;-0.50;100.00
54910;BME280;63189;51.240;9.964;2023-01-27T04:06:30;98332.66;;;-0.52;100.00
54910;BME280;63189;51.240;9.964;2023-01-27T04:09:21;98330.16;;;-0.51;100.00
54910;BME280;63189;51.240;9.964;2023-01-27T04:11:47;98329.34;;;-0.48;100.00
54910;BME280;63189;51.240;9.964;2023-01-27T04:14:43;98302.63;;;-0.61;100.00
54910;BME280;63189;51.240;9.964;2023-01-27T04:17:15;98325.97;;;-0.46;100.00
54910;BME280;63189;51.240;9.964;2023-01-27T04:19:41;98323.41;;;-0.46;100.00
54910;BME280;63189;51.240;9.964;2023-01-27T04:22:09;98310.53;;;-0.50;100.00
54910;BME280;63189;51.240;9.964;2023-01-27T04:24:35;98311.47;;;-0.45;100.00
54910;BME280;63189;51.240;9.964;2023-01-27T04:27:03;98308.81;;;-0.50;100.00
54910;BME280;63189;51.240;9.964;2023-01-27T04:29:32;98293.31;;;-0.57;100.00
54910;BME280;63189;51.240;9.964;2023-01-27T04:31:59;98320.03;;;-0.42;100.00
54910;BME280;63189;51.240;9.964;2023-01-27T04:34:26;98318.38;;;-0.41;100.00
54910;BME280;63189;51.240;9.964;2023-01-27T04:36:52;98303.72;;;-0.48;100.00
54910;BME280;63189;51.240;9.964;2023-01-27T04:39:18;98318.44;;;-0.38;100.00
54910;BME280;63189;51.240;9.964;2023-01-27T04:41:44;98314.13;;;-0.41;100.00
54910;BME280;63189;51.240;9.964;2023-01-27T04:44:10;98316.72;;;-0.39;100.00
54910;BME280;63189;51.240;9.964;2023-01-27T04:46:36;98308.91;;;-0.44;100.00
54910;BME280;63189;51.240;9.964;2023-01-27T04:49:02;98329.59;;;-0.33;100.00
54910;BME280;63189;51.240;9.964;2023-01-27T04:51:28;98327.88;;;-0.36;100.00
54910;BME280;63189;51.240;9.964;2023-01-27T04:53:54;98328.66;;;-0.40;100.00
54910;BME280;63189;51.240;9.964;2023-01-27T04:58:47;98340.72;;;-0.33;100.00
54910;BME280;63189;51.240;9.964;2023-01-27T05:01:12;98342.41;;;-0.35;100.00
54910;BME280;63189;51.240;9.964;2023-01-27T05:03:37;98334.66;;;-0.38;100.00
54910;BME280;63189;51.240;9.964;2023-01-27T05:06:03;98338.94;;;-0.37;100.00
54910;BME280;63189;51.240;9.964;2023-01-27T05:08:29;98350.09;;;-0.33;100.00
54910;BME280;63189;51.240;9.964;2023-01-27T05:10:54;98359.56;;;-0.31;100.00
54910;BME280;63189;51.240;9.964;2023-01-27T05:13:19;98344.06;;;-0.37;100.00
54910;BME280;63189;51.240;9.964;2023-01-27T05:15:45;98338.03;;;-0.40;100.00
54910;BME280;63189;51.240;9.964;2023-01-27T05:18:10;98362.16;;;-0.29;100.00
54910;BME280;63189;51.240;9.964;2023-01-27T05:20:35;98362.16;;;-0.29;100.00
54910;BME280;63189;51.240;9.964;2023-01-27T05:23:01;98365.63;;;-0.25;100.00
54910;BME280;63189;51.240;9.964;2023-01-27T05:25:45;98352.63;;;-0.35;100.00
54910;BME280;63189;51.240;9.964;2023-01-27T05:28:11;98364.78;;;-0.24;100.00
54910;BME280;63189;51.240;9.964;2023-01-27T05:30:36;98364.78;;;-0.24;100.00
54910;BME280;63189;51.240;9.964;2023-01-27T05:33:02;98369.91;;;-0.24;100.00
54910;BME280;63189;51.240;9.964;2023-01-27T05:35:27;98371.59;;;-0.26;100.00
54910;BME280;63189;51.240;9.964;2023-01-27T05:37:53;98381.88;;;-0.23;100.00
54910;BME280;63189;51.240;9.964;2023-01-27T05:40:18;98367.31;;;-0.26;100.00
54910;BME280;63189;51.240;9.964;2023-01-27T05:42:43;98363.84;;;-0.31;100.00
54910;BME280;63189;51.240;9.964;2023-01-27T05:45:09;98374.16;;;-0.26;100.00
54910;BME280;63189;51.240;9.964;2023-01-27T05:47:34;98371.59;;;-0.26;100.00
54910;BME280;63189;51.240;9.964;2023-01-27T05:49:59;98366.50;;;-0.23;100.00
54910;BME280;63189;51.240;9.964;2023-01-27T05:52:25;98375.00;;;-0.26;100.00
54910;BME280;63189;51.240;9.964;2023-01-27T05:54:50;98370.81;;;-0.22;100.00
54910;BME280;63189;51.240;9.964;2023-01-27T05:57:15;98375.94;;;-0.21;100.00
54910;BME280;63189;51.240;9.964;2023-01-27T05:59:41;98376.75;;;-0.23;100.00
54910;BME280;63189;51.240;9.964;2023-01-27T06:02:06;98370.72;;;-0.27;100.00
54910;BME280;63189;51.240;9.964;2023-01-27T06:04:31;98373.25;;;-0.28;100.00
54910;BME280;63189;51.240;9.964;2023-01-27T06:06:56;98377.66;;;-0.21;100.00
54910;BME280;63189;51.240;9.964;2023-01-27T06:09:22;98378.44;;;-0.25;100.00
54910;BME280;63189;51.240;9.964;2023-01-27T06:11:47;98381.84;;;-0.26;100.00
54910;BME280;63189;51.240;9.964;2023-01-27T06:14:12;98392.22;;;-0.20;100.00
54910;BME280;63189;51.240;9.964;2023-01-27T06:16:38;98395.53;;;-0.24;100.00
54910;BME280;63189;51.240;9.964;2023-01-27T06:19:04;98394.69;;;-0.23;100.00
54910;BME280;63189;51.240;9.964;2023-01-27T06:21:29;98394.63;;;-0.28;100.00
54910;BME280;63189;51.240;9.964;2023-01-27T06:23:54;98391.97;;;-0.33;100.00
54910;BME280;63189;51.240;9.964;2023-01-27T06:26:20;98398.88;;;-0.28;100.00
54910;BME280;63189;51.240;9.964;2023-01-27T06:28:45;98396.31;;;-0.30;100.00
54910;BME280;63189;51.240;9.964;2023-01-27T06:31:19;98402.31;;;-0.28;100.00
54910;BME280;63189;51.240;9.964;2023-01-27T06:33:46;98415.19;;;-0.25;100.00
54910;BME280;63189;51.240;9.964;2023-01-27T06:36:14;98408.25;;;-0.31;100.00
54910;BME280;63189;51.240;9.964;2023-01-27T06:38:40;98410.91;;;-0.24;100.00
54910;BME280;63189;51.240;9.964;2023-01-27T06:41:06;98417.75;;;-0.23;100.00
54910;BME280;63189;51.240;9.964;2023-01-27T06:43:32;98406.59;;;-0.27;100.00
54910;BME280;63189;51.240;9.964;2023-01-27T06:45:57;98398.75;;;-0.35;100.00
54910;BME280;63189;51.240;9.964;2023-01-27T06:48:23;98409.09;;;-0.30;100.00
54910;BME280;63189;51.240;9.964;2023-01-27T06:50:49;98418.59;;;-0.24;100.00
54910;BME280;63189;51.240;9.964;2023-01-27T06:53:14;98410.00;;;-0.28;100.00
54910;BME280;63189;51.240;9.964;2023-01-27T06:55:39;98420.31;;;-0.23;100.00
54910;BME280;63189;51.240;9.964;2023-01-27T06:58:09;98412.56;;;-0.28;100.00
54910;BME280;63189;51.240;9.964;2023-01-27T07:00:35;98409.13;;;-0.28;100.00
54910;BME280;63189;51.240;9.964;2023-01-27T07:03:02;98429.72;;;-0.22;100.00
54910;BME280;63189;51.240;9.964;2023-01-27T07:05:27;98417.72;;;-0.26;100.00
54910;BME280;63189;51.240;9.964;2023-01-27T07:07:53;98427.19;;;-0.21;100.00
54910;BME280;63189;51.240;9.964;2023-01-27T07:10:18;98417.66;;;-0.30;100.00
54910;BME280;63189;51.240;9.964;2023-01-27T07:12:44;98423.78;;;-0.21;100.00
54910;BME280;63189;51.240;9.964;2023-01-27T07:15:10;98421.16;;;-0.24;100.00
54910;BME280;63189;51.240;9.964;2023-01-27T07:17:36;98433.28;;;-0.17;100.00
54910;BME280;63189;51.240;9.964;2023-01-27T07:20:02;98431.53;;;-0.18;100.00
54910;BME280;63189;51.240;9.964;2023-01-27T07:22:28;98424.59;;;-0.22;100.00
54910;BME280;63189;51.240;9.964;2023-01-27T07:24:53;98431.53;;;-0.18;100.00
54910;BME280;63189;51.240;9.964;2023-01-27T07:27:22;98438.50;;;-0.11;100.00
54910;BME280;63189;51.240;9.964;2023-01-27T07:29:48;98447.09;;;-0.09;100.00
54910;BME280;63189;51.240;9.964;2023-01-27T07:32:13;98442.84;;;-0.09;100.00
54910;BME280;63189;51.240;9.964;2023-01-27T07:34:39;98448.88;;;-0.05;100.00
54910;BME280;63189;51.240;9.964;2023-01-27T07:37:04;98439.44;;;-0.08;100.00
54910;BME280;63189;51.240;9.964;2023-01-27T07:39:30;98453.19;;;-0.03;100.00
54910;BME280;63189;51.240;9.964;2023-01-27T07:41:57;98436.06;;;-0.05;100.00
54910;BME280;63189;51.240;9.964;2023-01-27T07:44:23;98442.97;;;-0.01;100.00
54910;BME280;63189;51.240;9.964;2023-01-27T07:46:48;98452.41;;;0.00;100.00
54910;BME280;63189;51.240;9.964;2023-01-27T07:49:14;98461.03;;;0.05;100.00
54910;BME280;63189;51.240;9.964;2023-01-27T07:51:39;98449.88;;;0.02;100.00
54910;BME280;63189;51.240;9.964;2023-01-27T07:54:05;98462.72;;;0.03;100.00
54910;BME280;63189;51.240;9.964;2023-01-27T07:56:30;98463.56;;;0.02;100.00
54910;BME280;63189;51.240;9.964;2023-01-27T07:58:56;98467.78;;;0.00;100.00
54910;BME280;63189;51.240;9.964;2023-01-27T08:01:22;98465.25;;;0.02;100.00
54910;BME280;63189;51.240;9.964;2023-01-27T08:03:48;98469.56;;;0.04;100.00
54910;BME280;63189;51.240;9.964;2023-01-27T08:06:13;98472.13;;;0.04;100.00
54910;BME280;63189;51.240;9.964;2023-01-27T08:08:38;98466.84;;;-0.04;100.00
54910;BME280;63189;51.240;9.964;2023-01-27T08:11:06;98476.47;;;0.08;100.00
54910;BME280;63189;51.240;9.964;2023-01-27T08:13:35;98473.00;;;0.05;100.00
54910;BME280;63189;51.240;9.964;2023-01-27T08:16:02;98458.41;;;0.02;100.00
54910;BME280;63189;51.240;9.964;2023-01-27T08:18:30;98478.28;;;0.12;100.00
54910;BME280;63189;51.240;9.964;2023-01-27T08:20:58;98489.47;;;0.17;100.00
54910;BME280;63189;51.240;9.964;2023-01-27T08:23:24;98488.63;;;0.18;100.00
54910;BME280;63189;51.240;9.964;2023-01-27T08:25:56;98480.19;;;0.24;100.00
54910;BME280;63189;51.240;9.964;2023-01-27T08:28:22;98486.25;;;0.27;100.00
54910;BME280;63189;51.240;9.964;2023-01-27T08:30:48;98469.97;;;0.25;100.00
54910;BME280;63189;51.240;9.964;2023-01-27T08:33:18;98489.78;;;0.33;100.00
54910;BME280;63189;51.240;9.964;2023-01-27T08:35:43;98485.47;;;0.32;100.00
54910;BME280;63189;51.240;9.964;2023-01-27T08:38:13;98493.28;;;0.39;100.00
54910;BME280;63189;51.240;9.964;2023-01-27T08:40:40;98494.22;;;0.43;100.00
54910;BME280;63189;51.240;9.964;2023-01-27T08:43:06;98489.94;;;0.42;100.00
54910;BME280;63189;51.240;9.964;2023-01-27T08:45:33;98501.19;;;0.50;100.00
54910;BME280;63189;51.240;9.964;2023-01-27T08:47:59;98505.44;;;0.49;100.00
54910;BME280;63189;51.240;9.964;2023-01-27T08:50:27;98509.75;;;0.52;100.00
54910;BME280;63189;51.240;9.964;2023-01-27T08:52:54;98499.50;;;0.52;100.00
54910;BME280;63189;51.240;9.964;2023-01-27T08:55:24;98502.06;;;0.52;100.00
54910;BME280;63189;51.240;9.964;2023-01-27T08:57:49;98508.13;;;0.55;100.00
54910;BME280;63189;51.240;9.964;2023-01-27T09:00:14;98499.44;;;0.49;100.00
54910;BME280;63189;51.240;9.964;2023-01-27T09:02:40;98502.03;;;0.50;100.00
54910;BME280;63189;51.240;9.964;2023-01-27T09:05:05;98506.44;;;0.56;100.00
54910;BME280;63189;51.240;9.964;2023-01-27T09:07:31;98496.94;;;0.52;100.00
54910;BME280;63189;51.240;9.964;2023-01-27T09:09:57;98509.94;;;0.61;100.00
54910;BME280;63189;51.240;9.964;2023-01-27T09:12:22;98513.34;;;0.60;100.00
54910;BME280;63189;51.240;9.964;2023-01-27T09:14:48;98519.44;;;0.67;100.00
54910;BME280;63189;51.240;9.964;2023-01-27T09:17:13;98515.13;;;0.64;100.00
54910;BME280;63189;51.240;9.964;2023-01-27T09:19:43;98519.50;;;0.70;100.00
54910;BME280;63189;51.240;9.964;2023-01-27T09:22:08;98519.53;;;0.71;100.00
54910;BME280;63189;51.240;9.964;2023-01-27T09:24:34;98500.59;;;0.65;100.00
54910;BME280;63189;51.240;9.964;2023-01-27T09:26:59;98521.28;;;0.74;100.00
54910;BME280;63189;51.240;9.964;2023-01-27T09:29:24;98519.53;;;0.73;100.00
54910;BME280;63189;51.240;9.964;2023-01-27T09:31:50;98531.59;;;0.77;100.00
54910;BME280;63189;51.240;9.964;2023-01-27T09:34:15;98522.16;;;0.74;100.00
54910;BME280;63189;51.240;9.964;2023-01-27T09:36:46;98520.44;;;0.73;100.00
54910;BME280;63189;51.240;9.964;2023-01-27T09:39:14;98530.81;;;0.81;100.00
54910;BME280;63189;51.240;9.964;2023-01-27T09:41:55;98542.78;;;0.80;100.00
54910;BME280;63189;51.240;9.964;2023-01-27T09:47:47;98547.06;;;0.81;100.00
54910;BME280;63189;51.240;9.964;2023-01-27T10:20:23;98553.22;;;0.90;100.00
54910;BME280;63189;51.240;9.964;2023-01-27T10:23:04;98548.06;;;0.90;100.00
54910;BME280;63189;51.240;9.964;2023-01-27T10:28:36;98536.91;;;0.86;100.00
54910;BME280;63189;51.240;9.964;2023-01-27T10:31:10;98550.75;;;0.96;100.00
54910;BME280;63189;51.240;9.964;2023-01-27T10:33:50;98544.78;;;0.97;100.00
54910;BME280;63189;51.240;9.964;2023-01-27T10:36:27;98544.78;;;0.97;100.00
54910;BME280;63189;51.240;9.964;2023-01-27T10:39:11;98551.69;;;1.01;100.00
54910;BME280;63189;51.240;9.964;2023-01-27T10:47:18;98557.78;;;1.06;100.00
54910;BME280;63189;51.240;9.964;2023-01-27T10:49:55;98548.25;;;1.00;100.00
54910;BME280;63189;51.240;9.964;2023-01-27T10:52:29;98552.66;;;1.07;100.00
54910;BME280;63189;51.240;9.964;2023-01-27T10:55:18;98560.44;;;1.12;100.00
54910;BME280;63189;51.240;9.964;2023-01-27T10:57:59;98548.44;;;1.11;100.00
54910;BME280;63189;51.240;9.964;2023-01-27T11:00:41;98556.25;;;1.17;100.00
54910;BME280;63189;51.240;9.964;2023-01-27T11:03:25;98550.25;;;1.15;100.00
54910;BME280;63189;51.240;9.964;2023-01-27T11:05:57;98534.81;;;1.15;100.00
54910;BME280;63189;51.240;9.964;2023-01-27T11:08:44;98548.66;;;1.25;100.00
54910;BME280;63189;51.240;9.964;2023-01-27T11:11:13;98543.56;;;1.26;100.00
54910;BME280;63189;51.240;9.964;2023-01-27T11:14:02;98553.94;;;1.35;100.00
54910;BME280;63189;51.240;9.964;2023-01-27T11:16:36;98553.94;;;1.34;100.00
54910;BME280;63189;51.240;9.964;2023-01-27T11:19:29;98543.59;;;1.29;100.00
54910;BME280;63189;51.240;9.964;2023-01-27T11:21:57;98540.16;;;1.27;100.00
54910;BME280;63189;51.240;9.964;2023-01-27T11:24:32;98535.91;;;1.29;100.00
54910;BME280;63189;51.240;9.964;2023-01-27T11:27:10;98548.81;;;1.35;100.00
54910;BME280;63189;51.240;9.964;2023-01-27T11:29:38;98538.66;;;1.41;100.00
54910;BME280;63189;51.240;9.964;2023-01-27T11:35:14;98537.13;;;1.56;100.00
54910;BME280;63189;51.240;9.964;2023-01-27T11:37:44;98540.53;;;1.55;100.00
54910;BME280;63189;51.240;9.964;2023-01-27T11:40:38;98520.00;;;1.55;100.00
54910;BME280;63189;51.240;9.964;2023-01-27T11:43:03;98524.34;;;1.59;100.00
54910;BME280;63189;51.240;9.964;2023-01-27T11:45:32;98526.09;;;1.63;100.00
54910;BME280;63189;51.240;9.964;2023-01-27T11:47:59;98535.53;;;1.64;100.00
54910;BME280;63189;51.240;9.964;2023-01-27T11:50:30;98508.94;;;1.60;100.00
54910;BME280;63189;51.240;9.964;2023-01-27T11:53:05;98509.84;;;1.64;100.00
54910;BME280;63189;51.240;9.964;2023-01-27T11:55:38;98521.94;;;1.71;100.00
54910;BME280;63189;51.240;9.964;2023-01-27T12:00:53;98516.09;;;1.81;100.00
54910;BME280;63189;51.240;9.964;2023-01-27T12:03:27;98498.97;;;1.83;100.00
54910;BME280;63189;51.240;9.964;2023-01-27T12:05:56;98505.91;;;1.90;100.00
54910;BME280;63189;51.240;9.964;2023-01-27T12:08:45;98508.47;;;1.89;100.00
54910;BME280;63189;51.240;9.964;2023-01-27T12:11:19;98506.81;;;1.92;100.00
54910;BME280;63189;51.240;9.964;2023-01-27T12:13:53;98504.19;;;1.89;100.00
54910;BME280;63189;51.240;9.964;2023-01-27T12:16:19;98502.41;;;1.84;100.00
54910;BME280;63189;51.240;9.964;2023-01-27T12:19:04;98496.38;;;1.82;100.00
54910;BME280;63189;51.240;9.964;2023-01-27T12:21:46;98498.22;;;1.90;100.00
54910;BME280;63189;51.240;9.964;2023-01-27T12:24:30;98499.03;;;1.88;100.00
54910;BME280;63189;51.240;9.964;2023-01-27T12:26:58;98504.13;;;1.86;100.00
54910;BME280;63189;51.240;9.964;2023-01-27T12:29:43;98495.56;;;1.86;100.00
54910;BME280;63189;51.240;9.964;2023-01-27T12:32:16;98495.63;;;1.89;100.00
54910;BME280;63189;51.240;9.964;2023-01-27T12:34:45;98499.09;;;1.92;100.00
54910;BME280;63189;51.240;9.964;2023-01-27T12:37:21;98496.53;;;1.94;100.00
54910;BME280;63189;51.240;9.964;2023-01-27T12:39:54;98499.16;;;1.98;100.00
54910;BME280;63189;51.240;9.964;2023-01-27T12:42:41;98502.63;;;2.02;100.00
54910;BME280;63189;51.240;9.964;2023-01-27T12:48:01;98494.06;;;2.03;100.00
54910;BME280;63189;51.240;9.964;2023-01-27T12:50:38;98494.94;;;2.03;100.00
54910;BME280;63189;51.240;9.964;2023-01-27T12:53:18;98495.75;;;1.99;100.00
54910;BME280;63189;51.240;9.964;2023-01-27T12:55:55;98490.63;;;2.02;100.00
54910;BME280;63189;51.240;9.964;2023-01-27T12:58:37;98500.06;;;2.03;100.00
54910;BME280;63189;51.240;9.964;2023-01-27T13:01:35;98482.78;;;1.90;100.00
54910;BME280;63189;51.240;9.964;2023-01-27T13:04:05;98485.38;;;1.92;100.00
54910;BME280;63189;51.240;9.964;2023-01-27T13:06:36;98493.97;;;1.97;100.00
54910;BME280;63189;51.240;9.964;2023-01-27T13:09:03;98500.03;;;1.99;100.00
54910;BME280;63189;51.240;9.964;2023-01-27T13:11:35;98488.84;;;1.97;100.00
54910;BME280;63189;51.240;9.964;2023-01-27T13:14:07;98496.59;;;1.98;100.00
54910;BME280;63189;51.240;9.964;2023-01-27T13:16:33;98481.91;;;1.88;100.00
54910;BME280;63189;51.240;9.964;2023-01-27T13:18:59;98501.75;;;2.00;100.00
54910;BME280;63189;51.240;9.964;2023-01-27T13:21:31;98500.00;;;1.97;100.00
54910;BME280;63189;51.240;9.964;2023-01-27T13:23:58;98496.53;;;1.95;100.00
54910;BME280;63189;51.240;9.964;2023-01-27T13:26:30;98486.19;;;1.89;100.00
54910;BME280;63189;51.240;9.964;2023-01-27T13:28:58;98499.94;;;1.91;100.00
54910;BME280;63189;51.240;9.964;2023-01-27T13:31:41;98491.34;;;1.89;100.00
54910;BME280;63189;51.240;9.964;2023-01-27T13:34:43;98494.78;;;1.90;100.00
54910;BME280;63189;51.240;9.964;2023-01-27T13:37:16;98482.72;;;1.87;100.00
54910;BME280;63189;51.240;9.964;2023-01-27T13:45:02;98499.97;;;1.94;100.00
54910;BME280;63189;51.240;9.964;2023-01-27T13:47:34;98495.69;;;1.95;100.00
54910;BME280;63189;51.240;9.964;2023-01-27T13:50:15;98501.75;;;2.00;100.00
54910;BME280;63189;51.240;9.964;2023-01-27T13:52:44;98503.47;;;1.99;100.00
54910;BME280;63189;51.240;9.964;2023-01-27T13:55:12;98491.41;;;1.95;100.00
54910;BME280;63189;51.240;9.964;2023-01-27T14:00:29;98493.06;;;1.90;100.00
54910;BME280;63189;51.240;9.964;2023-01-27T14:03:10;98514.56;;;1.97;100.00
54910;BME280;63189;51.240;9.964;2023-01-27T14:05:52;98506.81;;;1.95;100.00
54910;BME280;63189;51.240;9.964;2023-01-27T14:16:13;98522.34;;;2.01;100.00
54910;BME280;63189;51.240;9.964;2023-01-27T14:18:56;98515.47;;;2.00;100.00